sensor_id;sensor_type;location;lat;lon;timestamp;temperature;humidity
8965;DHT22;4517;49.020;12.066;2023-03-16T00:01:41;-1.40;99.90
8965;DHT22;4517;49.020;12.066;2023-03-16T00:04:07;-1.40;99.90
8965;DHT22;4517;49.020;12.066;2023-03-16T00:06:32;-1.60;99.90
8965;DHT22;4517;49.020;12.066;2023-03-16T00:08:58;-1.70;99.90
8965;DHT22;4517;49.020;12.066;2023-03-16T00:11:27;-1.70;99.90
8965;DHT22;4517;49.020;12.066;2023-03-16T00:13:53;-1.80;99.90
8965;DHT22;4517;49.020;12.066;2023-03-16T00:16:18;-1.90;99.90
8965;DHT22;4517;49.020;12.066;2023-03-16T00:18:44;-2.10;99.90
8965;DHT22;4517;49.020;12.066;2023-03-16T00:21:12;-2.20;99.90
8965;DHT22;4517;49.020;12.066;2023-03-16T00:23:38;-2.20;99.90
8965;DHT22;4517;49.020;12.066;2023-03-16T00:26:08;-2.20;99.90
8965;DHT22;4517;49.020;12.066;2023-03-16T00:28:34;-2.10;99.90
8965;DHT22;4517;49.020;12.066;2023-03-16T00:31:01;-2.20;99.90
8965;DHT22;4517;49.020;12.066;2023-03-16T00:33:28;-2.20;99.90
8965;DHT22;4517;49.020;12.066;2023-03-16T00:35:53;-2.20;99.90
8965;DHT22;4517;49.020;12.066;2023-03-16T00:38:28;-2.30;99.90
8965;DHT22;4517;49.020;12.066;2023-03-16T00:40:54;-2.40;99.90
8965;DHT22;4517;49.020;12.066;2023-03-16T00:43:20;-2.40;99.90
8965;DHT22;4517;49.020;12.066;2023-03-16T00:45:46;-2.50;99.90
8965;DHT22;4517;49.020;12.066;2023-03-16T00:48:11;-2.60;99.90
8965;DHT22;4517;49.020;12.066;2023-03-16T00:50:37;-2.70;99.90
8965;DHT22;4517;49.020;12.066;2023-03-16T00:53:03;-2.60;99.90
8965;DHT22;4517;49.020;12.066;2023-03-16T00:55:29;-2.60;99.90
8965;DHT22;4517;49.020;12.066;2023-03-16T00:57:54;-2.70;99.90
8965;DHT22;4517;49.020;12.066;2023-03-16T01:00:20;-2.70;99.90
8965;DHT22;4517;49.020;12.066;2023-03-16T01:02:46;-2.60;99.90
8965;DHT22;4517;49.020;12.066;2023-03-16T01:05:12;-2.70;99.90
8965;DHT22;4517;49.020;12.066;2023-03-16T01:07:39;-2.50;99.90
8965;DHT22;4517;49.020;12.066;2023-03-16T01:10:05;-2.10;99.90
8965;DHT22;4517;49.020;12.066;2023-03-16T01:12:32;-2.00;99.90
8965;DHT22;4517;49.020;12.066;2023-03-16T01:14:59;-1.90;99.90
8965;DHT22;4517;49.020;12.066;2023-03-16T01:17:25;-1.60;99.90
8965;DHT22;4517;49.020;12.066;2023-03-16T01:19:51;-1.60;99.90
8965;DHT22;4517;49.020;12.066;2023-03-16T01:22:17;-1.50;99.90
8965;DHT22;4517;49.020;12.066;2023-03-16T01:24:43;-1.40;99.90
8965;DHT22;4517;49.020;12.066;2023-03-16T01:27:10;-1.30;99.90
8965;DHT22;4517;49.020;12.066;2023-03-16T01:29:36;-1.30;99.90
8965;DHT22;4517;49.020;12.066;2023-03-16T01:32:03;-1.20;99.90
8965;DHT22;4517;49.020;12.066;2023-03-16T01:34:29;-1.10;99.90
8965;DHT22;4517;49.020;12.066;2023-03-16T01:36:55;-1.00;99.90
8965;DHT22;4517;49.020;12.066;2023-03-16T01:39:20;-1.00;99.90
8965;DHT22;4517;49.020;12.066;2023-03-16T01:41:46;-1.00;99.90
8965;DHT22;4517;49.020;12.066;2023-03-16T01:44:18;-1.00;99.90
8965;DHT22;4517;49.020;12.066;2023-03-16T01:46:44;-0.90;99.90
8965;DHT22;4517;49.020;12.066;2023-03-16T01:49:13;-0.80;99.90
8965;DHT22;4517;49.020;12.066;2023-03-16T01:51:42;-0.80;99.90
8965;DHT22;4517;49.020;12.066;2023-03-16T01:57:05;-0.80;99.90
8965;DHT22;4517;49.020;12.066;2023-03-16T02:02:12;-0.80;99.90
8965;DHT22;4517;49.020;12.066;2023-03-16T02:07:08;-0.70;99.90
8965;DHT22;4517;49.020;12.066;2023-03-16T02:09:40;-0.80;99.90
8965;DHT22;4517;49.020;12.066;2023-03-16T02:12:12;-0.90;99.90
8965;DHT22;4517;49.020;12.066;2023-03-16T02:14:47;-0.80;99.90
8965;DHT22;4517;49.020;12.066;2023-03-16T02:17:14;-0.80;99.90
8965;DHT22;4517;49.020;12.066;2023-03-16T02:19:52;-0.90;99.90
8965;DHT22;4517;49.020;12.066;2023-03-16T02:22:19;-0.90;99.90
8965;DHT22;4517;49.020;12.066;2023-03-16T02:24:50;-0.90;99.90
8965;DHT22;4517;49.020;12.066;2023-03-16T02:27:47;-0.90;99.90
8965;DHT22;4517;49.020;12.066;2023-03-16T02:30:14;-0.90;99.90
8965;DHT22;4517;49.020;12.066;2023-03-16T02:32:40;-0.80;99.90
8965;DHT22;4517;49.020;12.066;2023-03-16T02:35:07;-0.80;99.90
8965;DHT22;4517;49.020;12.066;2023-03-16T02:37:33;-0.70;99.90
8965;DHT22;4517;49.020;12.066;2023-03-16T02:40:00;-0.80;99.90
8965;DHT22;4517;49.020;12.066;2023-03-16T02:42:28;-0.80;99.90
8965;DHT22;4517;49.020;12.066;2023-03-16T02:44:58;-0.80;99.90
8965;DHT22;4517;49.020;12.066;2023-03-16T02:47:36;-0.90;99.90
8965;DHT22;4517;49.020;12.066;2023-03-16T02:50:05;-1.00;99.90
8965;DHT22;4517;49.020;12.066;2023-03-16T02:52:32;-1.10;99.90
8965;DHT22;4517;49.020;12.066;2023-03-16T02:54:58;-1.10;99.90
8965;DHT22;4517;49.020;12.066;2023-03-16T02:57:24;-1.00;99.90
8965;DHT22;4517;49.020;12.066;2023-03-16T02:59:49;-0.90;99.90
8965;DHT22;4517;49.020;12.066;2023-03-16T03:02:16;-0.90;99.90
8965;DHT22;4517;49.020;12.066;2023-03-16T03:04:42;-1.00;99.90
8965;DHT22;4517;49.020;12.066;2023-03-16T03:07:11;-1.10;99.90
8965;DHT22;4517;49.020;12.066;2023-03-16T03:09:39;-1.20;99.90
8965;DHT22;4517;49.020;12.066;2023-03-16T03:12:07;-1.10;99.90
8965;DHT22;4517;49.020;12.066;2023-03-16T03:14:33;-1.10;99.90
8965;DHT22;4517;49.020;12.066;2023-03-16T03:17:03;-1.10;99.90
8965;DHT22;4517;49.020;12.066;2023-03-16T03:19:28;-1.10;99.90
8965;DHT22;4517;49.020;12.066;2023-03-16T03:21:54;-1.20;99.90
8965;DHT22;4517;49.020;12.066;2023-03-16T03:24:21;-1.20;99.90
8965;DHT22;4517;49.020;12.066;2023-03-16T03:26:47;-1.20;99.90
8965;DHT22;4517;49.020;12.066;2023-03-16T03:29:13;-1.10;99.90
8965;DHT22;4517;49.020;12.066;2023-03-16T03:31:38;-1.10;99.90
8965;DHT22;4517;49.020;12.066;2023-03-16T03:34:04;-1.20;99.90
8965;DHT22;4517;49.020;12.066;2023-03-16T03:36:32;-1.40;99.90
8965;DHT22;4517;49.020;12.066;2023-03-16T03:38:59;-1.40;99.90
8965;DHT22;4517;49.020;12.066;2023-03-16T03:41:27;-1.40;99.90
8965;DHT22;4517;49.020;12.066;2023-03-16T03:43:53;-1.50;99.90
8965;DHT22;4517;49.020;12.066;2023-03-16T03:46:18;-1.50;99.90
8965;DHT22;4517;49.020;12.066;2023-03-16T03:48:44;-1.50;99.90
8965;DHT22;4517;49.020;12.066;2023-03-16T03:51:09;-1.50;99.90
8965;DHT22;4517;49.020;12.066;2023-03-16T03:53:35;-1.60;99.90
8965;DHT22;4517;49.020;12.066;2023-03-16T03:56:00;-1.50;99.90
8965;DHT22;4517;49.020;12.066;2023-03-16T03:58:26;-1.50;99.90
8965;DHT22;4517;49.020;12.066;2023-03-16T04:00:51;-1.60;99.90
8965;DHT22;4517;49.020;12.066;2023-03-16T04:03:17;-1.60;99.90
8965;DHT22;4517;49.020;12.066;2023-03-16T04:05:42;-1.60;99.90
8965;DHT22;4517;49.020;12.066;2023-03-16T04:08:08;-1.70;99.90
8965;DHT22;4517;49.020;12.066;2023-03-16T04:10:33;-1.60;99.90
8965;DHT22;4517;49.020;12.066;2023-03-16T04:12:59;-1.60;99.90
8965;DHT22;4517;49.020;12.066;2023-03-16T04:15:26;-1.60;99.90
8965;DHT22;4517;49.020;12.066;2023-03-16T04:17:51;-1.70;99.90
8965;DHT22;4517;49.020;12.066;2023-03-16T04:20:17;-1.60;99.90
8965;DHT22;4517;49.020;12.066;2023-03-16T04:22:47;-1.60;99.90
8965;DHT22;4517;49.020;12.066;2023-03-16T04:25:14;-1.60;99.90
8965;DHT22;4517;49.020;12.066;2023-03-16T04:27:40;-1.60;99.90
8965;DHT22;4517;49.020;12.066;2023-03-16T04:30:10;-1.60;99.90
8965;DHT22;4517;49.020;12.066;2023-03-16T04:32:37;-1.60;99.90
8965;DHT22;4517;49.020;12.066;2023-03-16T04:35:03;-1.60;99.90
8965;DHT22;4517;49.020;12.066;2023-03-16T04:37:29;-1.60;99.90
8965;DHT22;4517;49.020;12.066;2023-03-16T04:39:55;-1.60;99.90
8965;DHT22;4517;49.020;12.066;2023-03-16T04:42:20;-1.70;99.90
8965;DHT22;4517;49.020;12.066;2023-03-16T04:44:46;-1.70;99.90
8965;DHT22;4517;49.020;12.066;2023-03-16T04:47:13;-1.60;99.90
8965;DHT22;4517;49.020;12.066;2023-03-16T04:49:39;-1.60;99.90
8965;DHT22;4517;49.020;12.066;2023-03-16T04:52:05;-1.60;99.90
8965;DHT22;4517;49.020;12.066;2023-03-16T04:54:31;-1.70;99.90
8965;DHT22;4517;49.020;12.066;2023-03-16T04:56:58;-1.70;99.90
8965;DHT22;4517;49.020;12.066;2023-03-16T04:59:25;-1.60;99.90
8965;DHT22;4517;49.020;12.066;2023-03-16T05:01:51;-1.50;99.90
8965;DHT22;4517;49.020;12.066;2023-03-16T05:04:16;-1.50;99.90
8965;DHT22;4517;49.020;12.066;2023-03-16T05:06:42;-1.50;99.90
8965;DHT22;4517;49.020;12.066;2023-03-16T05:09:08;-1.50;99.90
8965;DHT22;4517;49.020;12.066;2023-03-16T05:11:34;-1.40;99.90
8965;DHT22;4517;49.020;12.066;2023-03-16T05:14:00;-1.50;99.90
8965;DHT22;4517;49.020;12.066;2023-03-16T05:16:27;-1.60;99.90
8965;DHT22;4517;49.020;12.066;2023-03-16T05:18:52;-1.60;99.90
8965;DHT22;4517;49.020;12.066;2023-03-16T05:21:19;-1.60;99.90
8965;DHT22;4517;49.020;12.066;2023-03-16T05:23:44;-1.60;99.90
8965;DHT22;4517;49.020;12.066;2023-03-16T05:26:10;-1.70;99.90
8965;DHT22;4517;49.020;12.066;2023-03-16T05:28:37;-1.70;99.90
8965;DHT22;4517;49.020;12.066;2023-03-16T05:31:04;-1.70;99.90
8965;DHT22;4517;49.020;12.066;2023-03-16T05:33:30;-1.80;99.90
8965;DHT22;4517;49.020;12.066;2023-03-16T05:35:55;-1.80;99.90
8965;DHT22;4517;49.020;12.066;2023-03-16T05:38:23;-1.80;99.90
8965;DHT22;4517;49.020;12.066;2023-03-16T05:40:48;-1.70;99.90
8965;DHT22;4517;49.020;12.066;2023-03-16T05:43:18;-1.60;99.90
8965;DHT22;4517;49.020;12.066;2023-03-16T05:45:44;-1.50;99.90
8965;DHT22;4517;49.020;12.066;2023-03-16T05:48:16;-1.40;99.90
8965;DHT22;4517;49.020;12.066;2023-03-16T05:50:41;-1.30;99.90
8965;DHT22;4517;49.020;12.066;2023-03-16T05:53:07;-1.30;99.90
8965;DHT22;4517;49.020;12.066;2023-03-16T05:55:33;-1.40;99.90
8965;DHT22;4517;49.020;12.066;2023-03-16T05:57:59;-1.40;99.90
8965;DHT22;4517;49.020;12.066;2023-03-16T06:00:24;-1.30;99.90
8965;DHT22;4517;49.020;12.066;2023-03-16T06:02:50;-1.20;99.90
8965;DHT22;4517;49.020;12.066;2023-03-16T06:05:17;-1.20;99.90
8965;DHT22;4517;49.020;12.066;2023-03-16T06:07:44;-1.40;99.90
8965;DHT22;4517;49.020;12.066;2023-03-16T06:10:10;-1.30;99.90
8965;DHT22;4517;49.020;12.066;2023-03-16T06:12:36;-1.20;99.90
8965;DHT22;4517;49.020;12.066;2023-03-16T06:15:02;-1.20;99.90
8965;DHT22;4517;49.020;12.066;2023-03-16T06:17:28;-1.10;99.90
8965;DHT22;4517;49.020;12.066;2023-03-16T06:19:54;-1.10;99.90
8965;DHT22;4517;49.020;12.066;2023-03-16T06:22:19;-1.10;99.90
8965;DHT22;4517;49.020;12.066;2023-03-16T06:24:45;-1.10;99.90
8965;DHT22;4517;49.020;12.066;2023-03-16T06:27:11;-1.00;99.90
8965;DHT22;4517;49.020;12.066;2023-03-16T06:29:36;-0.90;99.90
8965;DHT22;4517;49.020;12.066;2023-03-16T06:32:02;-0.80;99.90
8965;DHT22;4517;49.020;12.066;2023-03-16T06:34:28;-0.70;99.90
8965;DHT22;4517;49.020;12.066;2023-03-16T06:36:53;-0.60;99.90
8965;DHT22;4517;49.020;12.066;2023-03-16T06:39:19;-0.50;99.90
8965;DHT22;4517;49.020;12.066;2023-03-16T06:41:45;-0.50;99.90
8965;DHT22;4517;49.020;12.066;2023-03-16T06:44:11;-0.40;99.90
8965;DHT22;4517;49.020;12.066;2023-03-16T06:46:37;-0.30;99.90
8965;DHT22;4517;49.020;12.066;2023-03-16T06:49:03;-0.30;99.90
8965;DHT22;4517;49.020;12.066;2023-03-16T06:51:29;-0.20;99.90
8965;DHT22;4517;49.020;12.066;2023-03-16T06:53:54;-0.10;99.90
8965;DHT22;4517;49.020;12.066;2023-03-16T06:56:20;-0.20;99.90
8965;DHT22;4517;49.020;12.066;2023-03-16T06:58:46;-0.10;99.90
8965;DHT22;4517;49.020;12.066;2023-03-16T07:01:11;0.00;99.90
8965;DHT22;4517;49.020;12.066;2023-03-16T07:03:37;0.00;99.90
8965;DHT22;4517;49.020;12.066;2023-03-16T07:06:03;0.10;99.90
8965;DHT22;4517;49.020;12.066;2023-03-16T07:08:28;0.20;99.90
8965;DHT22;4517;49.020;12.066;2023-03-16T07:10:54;0.40;99.90
8965;DHT22;4517;49.020;12.066;2023-03-16T07:13:20;0.50;99.90
8965;DHT22;4517;49.020;12.066;2023-03-16T07:15:49;0.70;99.90
8965;DHT22;4517;49.020;12.066;2023-03-16T07:18:16;0.70;99.90
8965;DHT22;4517;49.020;12.066;2023-03-16T07:20:42;0.80;99.90
8965;DHT22;4517;49.020;12.066;2023-03-16T07:23:07;0.80;99.90
8965;DHT22;4517;49.020;12.066;2023-03-16T07:25:33;0.60;99.90
8965;DHT22;4517;49.020;12.066;2023-03-16T07:27:58;0.40;99.90
8965;DHT22;4517;49.020;12.066;2023-03-16T07:30:24;0.60;99.90
8965;DHT22;4517;49.020;12.066;2023-03-16T07:32:50;0.50;99.90
8965;DHT22;4517;49.020;12.066;2023-03-16T07:35:16;0.40;99.90
8965;DHT22;4517;49.020;12.066;2023-03-16T07:37:41;0.30;99.90
8965;DHT22;4517;49.020;12.066;2023-03-16T07:40:08;0.50;99.90
8965;DHT22;4517;49.020;12.066;2023-03-16T07:42:34;0.50;99.90
8965;DHT22;4517;49.020;12.066;2023-03-16T07:45:00;0.40;99.90
8965;DHT22;4517;49.020;12.066;2023-03-16T07:47:26;0.40;99.90
8965;DHT22;4517;49.020;12.066;2023-03-16T07:49:52;0.30;99.90
8965;DHT22;4517;49.020;12.066;2023-03-16T07:52:18;0.70;99.90
8965;DHT22;4517;49.020;12.066;2023-03-16T07:54:44;1.10;99.90
8965;DHT22;4517;49.020;12.066;2023-03-16T07:57:09;1.20;99.90
8965;DHT22;4517;49.020;12.066;2023-03-16T07:59:36;1.00;99.90
8965;DHT22;4517;49.020;12.066;2023-03-16T08:02:02;1.10;99.90
8965;DHT22;4517;49.020;12.066;2023-03-16T08:04:28;1.30;99.90
8965;DHT22;4517;49.020;12.066;2023-03-16T08:06:54;1.50;99.90
8965;DHT22;4517;49.020;12.066;2023-03-16T08:09:27;1.50;99.90
8965;DHT22;4517;49.020;12.066;2023-03-16T08:11:53;1.20;99.90
8965;DHT22;4517;49.020;12.066;2023-03-16T08:14:18;1.20;99.90
8965;DHT22;4517;49.020;12.066;2023-03-16T08:16:44;1.20;99.90
8965;DHT22;4517;49.020;12.066;2023-03-16T08:19:10;1.40;99.90
8965;DHT22;4517;49.020;12.066;2023-03-16T08:21:37;1.70;99.90
8965;DHT22;4517;49.020;12.066;2023-03-16T08:24:02;2.00;99.90
8965;DHT22;4517;49.020;12.066;2023-03-16T08:26:28;2.20;99.90
8965;DHT22;4517;49.020;12.066;2023-03-16T08:28:54;2.50;99.90
8965;DHT22;4517;49.020;12.066;2023-03-16T08:31:20;2.80;99.90
8965;DHT22;4517;49.020;12.066;2023-03-16T08:33:47;2.70;99.90
8965;DHT22;4517;49.020;12.066;2023-03-16T08:36:15;2.50;99.90
8965;DHT22;4517;49.020;12.066;2023-03-16T08:38:41;2.60;99.90
8965;DHT22;4517;49.020;12.066;2023-03-16T08:41:08;2.70;99.90
8965;DHT22;4517;49.020;12.066;2023-03-16T08:43:34;2.60;99.90
8965;DHT22;4517;49.020;12.066;2023-03-16T08:46:01;2.30;99.90
8965;DHT22;4517;49.020;12.066;2023-03-16T08:48:28;2.60;99.90
8965;DHT22;4517;49.020;12.066;2023-03-16T08:50:54;2.70;99.90
8965;DHT22;4517;49.020;12.066;2023-03-16T08:53:19;2.80;99.90
8965;DHT22;4517;49.020;12.066;2023-03-16T08:55:45;2.90;99.90
8965;DHT22;4517;49.020;12.066;2023-03-16T08:58:11;2.90;99.90
8965;DHT22;4517;49.020;12.066;2023-03-16T09:00:38;3.00;99.90
8965;DHT22;4517;49.020;12.066;2023-03-16T09:03:05;3.20;99.90
8965;DHT22;4517;49.020;12.066;2023-03-16T09:05:31;3.40;99.90
8965;DHT22;4517;49.020;12.066;2023-03-16T09:07:57;3.20;99.90
8965;DHT22;4517;49.020;12.066;2023-03-16T09:10:23;3.10;99.90
8965;DHT22;4517;49.020;12.066;2023-03-16T09:12:51;3.40;99.90
8965;DHT22;4517;49.020;12.066;2023-03-16T09:15:17;3.40;99.90
8965;DHT22;4517;49.020;12.066;2023-03-16T09:17:44;3.30;99.90
8965;DHT22;4517;49.020;12.066;2023-03-16T09:20:11;3.60;99.90
8965;DHT22;4517;49.020;12.066;2023-03-16T09:22:37;3.80;99.90
8965;DHT22;4517;49.020;12.066;2023-03-16T09:25:06;3.70;99.90
8965;DHT22;4517;49.020;12.066;2023-03-16T09:27:32;3.60;99.90
8965;DHT22;4517;49.020;12.066;2023-03-16T09:29:58;3.50;99.90
8965;DHT22;4517;49.020;12.066;2023-03-16T09:32:26;3.60;99.90
8965;DHT22;4517;49.020;12.066;2023-03-16T09:34:53;3.90;99.90
8965;DHT22;4517;49.020;12.066;2023-03-16T09:37:19;4.00;99.90
8965;DHT22;4517;49.020;12.066;2023-03-16T09:39:45;4.30;99.90
8965;DHT22;4517;49.020;12.066;2023-03-16T09:47:33;4.70;99.90
8965;DHT22;4517;49.020;12.066;2023-03-16T09:50:04;4.50;99.90
8965;DHT22;4517;49.020;12.066;2023-03-16T09:52:52;4.80;99.90
8965;DHT22;4517;49.020;12.066;2023-03-16T09:55:34;5.30;99.90
8965;DHT22;4517;49.020;12.066;2023-03-16T09:58:04;5.30;99.90
8965;DHT22;4517;49.020;12.066;2023-03-16T10:03:49;4.40;99.90
8965;DHT22;4517;49.020;12.066;2023-03-16T10:06:21;4.40;99.90
8965;DHT22;4517;49.020;12.066;2023-03-16T10:11:40;4.60;99.90
8965;DHT22;4517;49.020;12.066;2023-03-16T10:16:57;4.10;99.90
8965;DHT22;4517;49.020;12.066;2023-03-16T10:22:21;4.60;99.90
8965;DHT22;4517;49.020;12.066;2023-03-16T10:25:07;4.80;99.90
8965;DHT22;4517;49.020;12.066;2023-03-16T10:27:35;4.50;99.90
8965;DHT22;4517;49.020;12.066;2023-03-16T10:30:13;4.70;99.90
8965;DHT22;4517;49.020;12.066;2023-03-16T10:32:44;5.10;99.90
8965;DHT22;4517;49.020;12.066;2023-03-16T10:35:33;5.10;99.90
8965;DHT22;4517;49.020;12.066;2023-03-16T10:38:02;5.30;99.90
8965;DHT22;4517;49.020;12.066;2023-03-16T10:40:35;5.50;99.90
8965;DHT22;4517;49.020;12.066;2023-03-16T10:43:12;5.20;99.90
8965;DHT22;4517;49.020;12.066;2023-03-16T10:45:38;4.90;99.90
8965;DHT22;4517;49.020;12.066;2023-03-16T10:48:12;4.80;99.90
8965;DHT22;4517;49.020;12.066;2023-03-16T10:50:41;4.80;99.90
8965;DHT22;4517;49.020;12.066;2023-03-16T10:53:25;5.20;99.90
8965;DHT22;4517;49.020;12.066;2023-03-16T10:56:00;5.30;99.90
8965;DHT22;4517;49.020;12.066;2023-03-16T10:58:31;5.10;99.90
8965;DHT22;4517;49.020;12.066;2023-03-16T11:00:58;5.00;99.90
8965;DHT22;4517;49.020;12.066;2023-03-16T11:03:29;5.00;99.90
8965;DHT22;4517;49.020;12.066;2023-03-16T11:06:02;5.10;99.90
8965;DHT22;4517;49.020;12.066;2023-03-16T11:08:36;5.30;99.90
8965;DHT22;4517;49.020;12.066;2023-03-16T11:11:13;5.60;99.90
8965;DHT22;4517;49.020;12.066;2023-03-16T11:13:47;5.60;99.90
8965;DHT22;4517;49.020;12.066;2023-03-16T11:16:40;5.50;99.90
8965;DHT22;4517;49.020;12.066;2023-03-16T11:19:29;5.30;99.90
8965;DHT22;4517;49.020;12.066;2023-03-16T11:22:11;5.30;99.90
8965;DHT22;4517;49.020;12.066;2023-03-16T11:29:55;4.60;99.90
8965;DHT22;4517;49.020;12.066;2023-03-16T11:32:32;4.80;99.90
8965;DHT22;4517;49.020;12.066;2023-03-16T11:35:00;4.80;99.90
8965;DHT22;4517;49.020;12.066;2023-03-16T11:37:50;4.90;99.90
8965;DHT22;4517;49.020;12.066;2023-03-16T11:43:42;5.20;99.90
8965;DHT22;4517;49.020;12.066;2023-03-16T11:49:26;5.30;99.90
8965;DHT22;4517;49.020;12.066;2023-03-16T11:52:02;5.40;99.90
8965;DHT22;4517;49.020;12.066;2023-03-16T11:55:10;5.40;99.90
8965;DHT22;4517;49.020;12.066;2023-03-16T12:00:54;5.80;99.90
8965;DHT22;4517;49.020;12.066;2023-03-16T12:06:52;5.80;99.90
8965;DHT22;4517;49.020;12.066;2023-03-16T12:12:46;6.40;99.90
8965;DHT22;4517;49.020;12.066;2023-03-16T12:15:47;6.60;99.90
8965;DHT22;4517;49.020;12.066;2023-03-16T12:20:59;6.50;99.90
8965;DHT22;4517;49.020;12.066;2023-03-16T12:23:42;6.60;99.90
8965;DHT22;4517;49.020;12.066;2023-03-16T12:26:10;6.70;99.90
8965;DHT22;4517;49.020;12.066;2023-03-16T12:28:37;6.90;99.90
8965;DHT22;4517;49.020;12.066;2023-03-16T12:31:18;6.90;99.90
8965;DHT22;4517;49.020;12.066;2023-03-16T12:39:06;6.70;99.90
8965;DHT22;4517;49.020;12.066;2023-03-16T12:47:37;6.70;99.90
8965;DHT22;4517;49.020;12.066;2023-03-16T12:50:12;6.90;99.90
8965;DHT22;4517;49.020;12.066;2023-03-16T12:52:45;6.90;99.90
8965;DHT22;4517;49.020;12.066;2023-03-16T12:57:59;6.90;99.90
8965;DHT22;4517;49.020;12.066;2023-03-16T13:00:36;6.90;99.90
8965;DHT22;4517;49.020;12.066;2023-03-16T13:03:04;7.00;99.90
8965;DHT22;4517;49.020;12.066;2023-03-16T13:05:35;7.10;99.90
8965;DHT22;4517;49.020;12.066;2023-03-16T13:08:15;7.20;99.90
8965;DHT22;4517;49.020;12.066;2023-03-16T13:10:43;7.20;99.90
8965;DHT22;4517;49.020;12.066;2023-03-16T13:13:23;7.20;99.90
8965;DHT22;4517;49.020;12.066;2023-03-16T13:16:04;7.20;99.90
8965;DHT22;4517;49.020;12.066;2023-03-16T13:18:39;7.20;99.90
8965;DHT22;4517;49.020;12.066;2023-03-16T13:21:18;7.30;99.90
8965;DHT22;4517;49.020;12.066;2023-03-16T13:24:00;7.30;99.90
8965;DHT22;4517;49.020;12.066;2023-03-16T13:26:50;7.30;99.90
8965;DHT22;4517;49.020;12.066;2023-03-16T13:31:49;7.40;99.90
8965;DHT22;4517;49.020;12.066;2023-03-16T13:34:25;7.40;99.90
8965;DHT22;4517;49.020;12.066;2023-03-16T13:36:56;7.50;99.90
8965;DHT22;4517;49.020;12.066;2023-03-16T13:39:24;7.50;99.90
8965;DHT22;4517;49.020;12.066;2023-03-16T13:42:15;7.60;99.90
8965;DHT22;4517;49.020;12.066;2023-03-16T13:44:43;7.60;99.90
8965;DHT22;4517;49.020;12.066;2023-03-16T13:47:16;7.60;99.90
8965;DHT22;4517;49.020;12.066;2023-03-16T13:49:46;7.60;99.90
8965;DHT22;4517;49.020;12.066;2023-03-16T13:52:30;7.60;99.90
8965;DHT22;4517;49.020;12.066;2023-03-16T13:55:01;7.60;99.90
8965;DHT22;4517;49.020;12.066;2023-03-16T13:57:30;7.70;99.90
8965;DHT22;4517;49.020;12.066;2023-03-16T14:00:13;7.70;99.90
8965;DHT22;4517;49.020;12.066;2023-03-16T14:02:43;7.80;99.90
8965;DHT22;4517;49.020;12.066;2023-03-16T14:05:33;7.90;99.90
8965;DHT22;4517;49.020;12.066;2023-03-16T14:08:00;8.00;99.90
8965;DHT22;4517;49.020;12.066;2023-03-16T14:10:34;8.00;99.90
8965;DHT22;4517;49.020;12.066;2023-03-16T14:13:09;7.90;99.90
8965;DHT22;4517;49.020;12.066;2023-03-16T14:15:46;7.80;99.90
8965;DHT22;4517;49.020;12.066;2023-03-16T14:18:14;7.80;99.90
8965;DHT22;4517;49.020;12.066;2023-03-16T14:20:41;7.90;99.90
8965;DHT22;4517;49.020;12.066;2023-03-16T14:23:17;8.00;99.90
8965;DHT22;4517;49.020;12.066;2023-03-16T14:25:43;8.00;99.90
8965;DHT22;4517;49.020;12.066;2023-03-16T14:28:13;8.10;99.90
8965;DHT22;4517;49.020;12.066;2023-03-16T14:30:49;8.10;99.90
8965;DHT22;4517;49.020;12.066;2023-03-16T14:33:36;8.00;99.90
8965;DHT22;4517;49.020;12.066;2023-03-16T14:36:18;8.10;99.90
8965;DHT22;4517;49.020;12.066;2023-03-16T14:38:46;8.10;99.90
8965;DHT22;4517;49.020;12.066;2023-03-16T14:41:24;8.10;99.90
8965;DHT22;4517;49.020;12.066;2023-03-16T14:43:57;8.10;99.90
8965;DHT22;4517;49.020;12.066;2023-03-16T14:48:59;8.10;99.90
8965;DHT22;4517;49.020;12.066;2023-03-16T14:51:25;8.10;99.90
8965;DHT22;4517;49.020;12.066;2023-03-16T14:53:50;8.10;99.90
8965;DHT22;4517;49.020;12.066;2023-03-16T14:56:16;8.00;99.90
8965;DHT22;4517;49.020;12.066;2023-03-16T14:58:42;8.00;99.90
8965;DHT22;4517;49.020;12.066;2023-03-16T15:01:14;8.00;99.90
8965;DHT22;4517;49.020;12.066;2023-03-16T15:03:41;8.00;99.90
8965;DHT22;4517;49.020;12.066;2023-03-16T15:06:07;7.90;99.90
8965;DHT22;4517;49.020;12.066;2023-03-16T15:08:34;8.00;99.90
8965;DHT22;4517;49.020;12.066;2023-03-16T15:11:07;7.90;99.90
8965;DHT22;4517;49.020;12.066;2023-03-16T15:13:34;8.00;99.90
8965;DHT22;4517;49.020;12.066;2023-03-16T15:16:18;8.00;99.90
8965;DHT22;4517;49.020;12.066;2023-03-16T15:18:44;7.80;99.90
8965;DHT22;4517;49.020;12.066;2023-03-16T15:21:11;7.70;99.90
8965;DHT22;4517;49.020;12.066;2023-03-16T15:23:40;7.60;99.90
8965;DHT22;4517;49.020;12.066;2023-03-16T15:26:09;7.60;99.90
8965;DHT22;4517;49.020;12.066;2023-03-16T15:28:35;7.70;99.90
8965;DHT22;4517;49.020;12.066;2023-03-16T15:31:02;7.70;99.90
8965;DHT22;4517;49.020;12.066;2023-03-16T15:33:28;7.70;99.90
8965;DHT22;4517;49.020;12.066;2023-03-16T15:35:56;7.60;99.90
8965;DHT22;4517;49.020;12.066;2023-03-16T15:38:24;7.60;99.90
8965;DHT22;4517;49.020;12.066;2023-03-16T15:40:51;7.60;99.90
8965;DHT22;4517;49.020;12.066;2023-03-16T15:43:22;7.70;99.90
8965;DHT22;4517;49.020;12.066;2023-03-16T15:45:49;7.70;99.90
8965;DHT22;4517;49.020;12.066;2023-03-16T15:48:16;7.70;99.90
8965;DHT22;4517;49.020;12.066;2023-03-16T15:50:52;7.60;99.90
8965;DHT22;4517;49.020;12.066;2023-03-16T15:53:32;7.50;99.90
8965;DHT22;4517;49.020;12.066;2023-03-16T15:56:14;7.40;99.90
8965;DHT22;4517;49.020;12.066;2023-03-16T15:58:42;7.30;99.90
8965;DHT22;4517;49.020;12.066;2023-03-16T16:01:23;7.30;99.90
8965;DHT22;4517;49.020;12.066;2023-03-16T16:03:51;7.20;99.90
8965;DHT22;4517;49.020;12.066;2023-03-16T16:06:19;7.20;99.90
8965;DHT22;4517;49.020;12.066;2023-03-16T16:08:44;7.20;99.90
8965;DHT22;4517;49.020;12.066;2023-03-16T16:11:16;7.10;99.90
8965;DHT22;4517;49.020;12.066;2023-03-16T16:13:43;7.20;99.90
8965;DHT22;4517;49.020;12.066;2023-03-16T16:16:13;7.10;99.90
8965;DHT22;4517;49.020;12.066;2023-03-16T16:18:39;7.10;99.90
8965;DHT22;4517;49.020;12.066;2023-03-16T16:21:08;7.10;99.90
8965;DHT22;4517;49.020;12.066;2023-03-16T16:23:38;7.00;99.90
8965;DHT22;4517;49.020;12.066;2023-03-16T16:26:09;7.00;99.90
8965;DHT22;4517;49.020;12.066;2023-03-16T16:28:37;6.90;99.90
8965;DHT22;4517;49.020;12.066;2023-03-16T16:31:10;6.90;99.90
8965;DHT22;4517;49.020;12.066;2023-03-16T16:33:37;6.80;99.90
8965;DHT22;4517;49.020;12.066;2023-03-16T16:36:05;6.80;99.90
8965;DHT22;4517;49.020;12.066;2023-03-16T16:38:32;6.80;99.90
8965;DHT22;4517;49.020;12.066;2023-03-16T16:41:02;6.70;99.90
8965;DHT22;4517;49.020;12.066;2023-03-16T16:43:57;6.70;99.90
8965;DHT22;4517;49.020;12.066;2023-03-16T16:46:25;6.70;99.90
8965;DHT22;4517;49.020;12.066;2023-03-16T16:49:05;6.60;99.90
8965;DHT22;4517;49.020;12.066;2023-03-16T16:51:31;6.50;99.90
8965;DHT22;4517;49.020;12.066;2023-03-16T16:53:59;6.30;99.90
8965;DHT22;4517;49.020;12.066;2023-03-16T16:56:30;6.20;99.90
8965;DHT22;4517;49.020;12.066;2023-03-16T16:58:58;6.20;99.90
8965;DHT22;4517;49.020;12.066;2023-03-16T17:01:29;6.20;99.90
8965;DHT22;4517;49.020;12.066;2023-03-16T17:03:57;6.00;99.90
8965;DHT22;4517;49.020;12.066;2023-03-16T17:06:23;5.90;99.90
8965;DHT22;4517;49.020;12.066;2023-03-16T17:08:49;5.80;99.90
8965;DHT22;4517;49.020;12.066;2023-03-16T17:11:20;5.60;99.90
8965;DHT22;4517;49.020;12.066;2023-03-16T17:13:47;5.50;99.90
8965;DHT22;4517;49.020;12.066;2023-03-16T17:16:16;5.30;99.90